Aden, Illinois
Current Conditions -  °F | °C
As of 10:55 PM on Wednesday 22 Oct 2014 (Local Time) from KFWC Reporting Station
Clear Clear  
Wind Chill:   Ceiling: Unl
Heat Index:   Visibility: 10mi
Dew Point:   Wind: 0mph
Humidity: 98%   Direction: NA
Pressure: 30.24"   Gusts: NA
Location:  38.3069°N, 88.55°W
Report Text: KFWC 230355Z AUTO 00000KT 10SM CLR 05/04 A3024 RMK AO1 T00450042
Loading
Personal Weather Stations






























Interactive Weather Map
Tropical Storm Tracking
New forecast layout! Learn more

10-Day Weather Forecast

Advertisements
Track Severe Weather on mobile